Wilmer, AL

5:23 PM CST on February 26, 2015 (GMT -0600)
APRSWXNET Wilmer AL US | Change Station
CLOSE
Current Station
Personal Weather Station
Location: Wilmer, AL
Elevation: 183 ft
Nearby Weather Stations

Elev 183 ft 30.75 °N, 88.40 °W | Updated 23 minutes ago

Partly Cloudy
Partly Cloudy
49 °F
Feels Like 49 °F
N
2
Wind Variable Wind from NW
Gusts 8.0 mph

Today
High -- | Low -- °F
--% Chance of Precip.
Yesterday
High -- | Low -- °F
Precip. -- in
6:23 AM 5:49 PM
Waxing Gibbous, 63% visible
Pressure 30.10 in
Visibility 10.0 miles
Clouds Few 2500 ft
Scattered Clouds 15000 ft
Scattered Clouds 25000 ft
Windchill 49 °F
Dew Point 38 °F
Humidity 66%
Rainfall 0.04 in
Snow Depth Not available.
UV 0 out of 12
Pollen 7.30 out of 12
Air Quality Not available.
Flu Activity Not available.
METAR KMOB 262256Z 36007KT 10SM FEW025 SCT150 SCT250 08/01 A3009 RMK AO2 SLP191 T00780011

More Conditions Fewer Conditions

Pressure 30.10 in
Visibility 10.0 miles
Clouds Few 2500 ft
Scattered Clouds 15000 ft
Scattered Clouds 25000 ft
Windchill 49 °F
Dew Point 38 °F
Humidity 66%
Rainfall 0.04 in
Snow Depth Not available.
UV 0 out of 12
Pollen 7.30 out of 12
Air Quality Not available.
Flu Activity Not available.
METAR KMOB 262256Z 36007KT 10SM FEW025 SCT150 SCT250 08/01 A3009 RMK AO2 SLP191 T00780011

More Conditions Fewer Conditions

10-Day Weather Forecast

Almanac

Astronomy

Feb. 26, 2015 Rise Set
Actual Time
Civil Twilight
Nautical Twilight
Astronomical Twilight
Moon
Length of Visible Light
Length of Day
Tomorrow will be .
, % of the Moon is Illuminated

Today's Extremes

State Highs State Lows

Community

WunderPhotos

Upload Photos

1,800,526 photos uploaded!

WunderBlogs® & News

Nearby

Air Quality

  Air Quality AQ Index Pollutant
Not available.

Snow Depth

Station Depth Elevation

Earthquake Activity

City Distance Mag. Time & Date
Minimum magnitude displayed is 2.5.

Coastal Water Temperatures

Place Temperature

Nearby Weather Stations